createdAt,value
2023-04-30T00:00:35.072Z,101457.98
2023-04-30T00:01:56.531Z,101458.35
2023-04-30T00:02:58.107Z,101452.95
2023-04-30T00:03:59.698Z,101456.26
2023-04-30T00:05:01.480Z,101454.56
2023-04-30T00:06:03.040Z,101455.08
2023-04-30T00:07:04.540Z,101456.01
2023-04-30T00:08:06.035Z,101453.69
2023-04-30T00:09:07.409Z,101449.85
2023-04-30T00:10:10.376Z,101452.39
2023-04-30T00:11:11.809Z,101457.30
2023-04-30T00:12:13.374Z,101458.34
2023-04-30T00:13:14.926Z,101456.48
2023-04-30T00:14:16.313Z,101457.15
2023-04-30T00:15:17.758Z,101458.95
2023-04-30T00:16:19.330Z,101462.66
2023-04-30T00:17:21.078Z,101462.58
2023-04-30T00:18:22.454Z,101462.54
2023-04-30T00:19:24.202Z,101465.09
2023-04-30T00:20:25.785Z,101465.35
2023-04-30T00:21:27.213Z,101469.23
2023-04-30T00:22:28.789Z,101468.27
2023-04-30T00:23:30.272Z,101469.65
2023-04-30T00:24:31.710Z,101473.59
2023-04-30T00:25:33.087Z,101475.39
2023-04-30T00:26:34.559Z,101469.56
2023-04-30T00:27:36.131Z,101471.91
2023-04-30T00:28:37.525Z,101472.14
2023-04-30T00:29:39.160Z,101471.83
2023-04-30T00:30:40.562Z,101475.59
2023-04-30T00:31:42.522Z,101478.16
2023-04-30T00:32:45.226Z,101480.88
2023-04-30T00:33:46.710Z,101478.85
2023-04-30T00:34:48.116Z,101479.41
2023-04-30T00:35:49.658Z,101483.13
2023-04-30T00:36:51.187Z,101479.89
2023-04-30T00:37:52.703Z,101480.86
2023-04-30T00:38:54.114Z,101486.11
2023-04-30T00:39:55.902Z,101482.84
2023-04-30T00:40:57.847Z,101482.95
2023-04-30T00:41:59.267Z,101482.92
2023-04-30T00:43:01.103Z,101483.48
2023-04-30T00:44:02.655Z,101483.36
2023-04-30T00:45:04.666Z,101486.66
2023-04-30T00:46:06.071Z,101484.83
2023-04-30T00:47:07.582Z,101490.08
2023-04-30T00:48:09.539Z,101485.23
2023-04-30T00:49:11.231Z,101493.41
2023-04-30T00:50:15.165Z,101489.39
2023-04-30T00:51:16.743Z,101488.85
2023-04-30T00:52:18.231Z,101490.45
2023-04-30T00:53:19.850Z,101490.56
2023-04-30T00:54:23.628Z,101489.92
2023-04-30T00:55:25.986Z,101485.98
2023-04-30T00:56:28.229Z,101490.46
2023-04-30T00:57:29.955Z,101486.39
2023-04-30T00:58:31.580Z,101488.43
2023-04-30T00:59:33.158Z,101490.94
2023-04-30T01:00:34.867Z,101490.40
2023-04-30T01:01:36.780Z,101491.37
2023-04-30T01:02:38.332Z,101494.88
2023-04-30T01:03:41.790Z,101495.46
2023-04-30T01:04:43.466Z,101497.74
2023-04-30T01:05:45.022Z,101496.47
2023-04-30T01:06:46.456Z,101497.21
2023-04-30T01:07:48.790Z,101494.48
2023-04-30T01:08:50.611Z,101498.15
2023-04-30T01:09:52.252Z,101497.25
2023-04-30T01:11:03.621Z,101494.02
2023-04-30T01:12:12.986Z,101493.48
2023-04-30T01:13:29.911Z,101495.02
2023-04-30T01:14:45.166Z,101497.16
2023-04-30T01:16:20.208Z,101499.29
2023-04-30T01:17:48.658Z,101500.17
2023-04-30T01:19:00.818Z,101498.31
2023-04-30T01:20:03.515Z,101500.58
2023-04-30T01:21:05.775Z,101502.75
2023-04-30T01:22:14.114Z,101504.91
2023-04-30T01:23:39.357Z,101504.02
2023-04-30T01:25:18.490Z,101504.81
2023-04-30T01:26:39.701Z,101506.75
2023-04-30T01:28:04.967Z,101512.45
2023-04-30T01:29:08.049Z,101510.73
2023-04-30T01:30:11.294Z,101512.34
2023-04-30T01:32:49.215Z,101513.60
2023-04-30T01:33:50.789Z,101514.90
2023-04-30T01:34:52.163Z,101517.66
2023-04-30T01:36:15.558Z,101517.83
2023-04-30T01:37:28.203Z,101518.52
2023-04-30T01:39:07.899Z,101517.39
2023-04-30T01:40:23.120Z,101519.31
2023-04-30T01:41:50.004Z,101519.70
2023-04-30T01:43:08.429Z,101523.52
2023-04-30T01:44:45.284Z,101525.02
2023-04-30T01:46:05.724Z,101525.40
2023-04-30T01:47:30.357Z,101523.88
2023-04-30T01:48:37.757Z,101523.30
2023-04-30T01:50:05.294Z,101526.90
2023-04-30T01:51:24.202Z,101523.84
2023-04-30T01:52:40.448Z,101529.76
2023-04-30T01:53:43.989Z,101530.33
2023-04-30T01:54:58.628Z,101524.79
2023-04-30T01:56:03.721Z,101533.80
2023-04-30T01:57:12.223Z,101533.45
2023-04-30T01:58:15.191Z,101538.92
2023-04-30T01:59:17.131Z,101540.84
2023-04-30T02:00:18.793Z,101538.73
2023-04-30T02:01:26.701Z,101535.71
2023-04-30T02:02:28.382Z,101539.31
2023-04-30T02:03:31.814Z,101535.95
2023-04-30T02:04:33.441Z,101536.89
2023-04-30T02:05:34.940Z,101533.58
2023-04-30T02:06:36.504Z,101534.06
2023-04-30T02:07:43.980Z,101534.49
2023-04-30T02:08:45.662Z,101539.02
2023-04-30T02:09:47.120Z,101538.11
2023-04-30T02:10:48.590Z,101539.41
2023-04-30T02:11:50.689Z,101541.80
2023-04-30T02:12:52.924Z,101544.56
2023-04-30T02:13:54.449Z,101544.93
2023-04-30T02:14:56.215Z,101546.70
2023-04-30T02:15:57.645Z,101547.77
2023-04-30T02:16:59.288Z,101542.73
2023-04-30T02:18:01.068Z,101543.60
2023-04-30T02:19:02.752Z,101548.41
2023-04-30T02:20:04.873Z,101549.21
2023-04-30T02:21:06.349Z,101547.45
2023-04-30T02:22:07.864Z,101545.88
2023-04-30T02:23:10.894Z,101550.04
2023-04-30T02:24:12.526Z,101553.00
2023-04-30T02:25:13.954Z,101550.73
2023-04-30T02:26:15.349Z,101554.76
2023-04-30T02:27:17.620Z,101554.79
2023-04-30T02:28:19.086Z,101554.45
2023-04-30T02:29:20.722Z,101555.05
2023-04-30T02:30:22.118Z,101556.29
2023-04-30T02:31:23.663Z,101555.48
2023-04-30T02:32:25.257Z,101555.39
2023-04-30T02:33:26.672Z,101553.45
2023-04-30T02:34:28.171Z,101556.87
2023-04-30T02:35:29.566Z,101561.44
2023-04-30T02:36:35.541Z,101562.67
2023-04-30T02:37:36.980Z,101559.98
2023-04-30T02:38:38.463Z,101561.92
2023-04-30T02:39:40.562Z,101560.95
2023-04-30T02:40:42.165Z,101558.15
2023-04-30T02:41:43.658Z,101561.08
2023-04-30T02:42:45.208Z,101563.08
2023-04-30T02:43:46.660Z,101561.58
2023-04-30T02:44:48.057Z,101561.14
2023-04-30T02:45:49.611Z,101562.39
2023-04-30T02:46:51.063Z,101568.61
2023-04-30T02:47:52.692Z,101566.77
2023-04-30T02:48:54.180Z,101569.24
2023-04-30T02:49:56.030Z,101571.52
2023-04-30T02:50:57.744Z,101570.42
2023-04-30T02:51:59.272Z,101568.28
2023-04-30T02:53:01.216Z,101570.71
2023-04-30T02:54:02.748Z,101572.17
2023-04-30T02:55:04.752Z,101574.26
2023-04-30T02:56:06.593Z,101571.03
2023-04-30T02:57:08.262Z,101572.13
2023-04-30T02:58:09.705Z,101572.98
2023-04-30T02:59:11.238Z,101572.98
2023-04-30T03:00:13.000Z,101573.99
2023-04-30T03:01:15.086Z,101573.69
2023-04-30T03:02:20.499Z,101577.81
2023-04-30T03:03:22.037Z,101579.92
2023-04-30T03:04:23.647Z,101579.44
2023-04-30T03:05:25.150Z,101581.80
2023-04-30T03:06:26.555Z,101583.99
2023-04-30T03:07:27.981Z,101579.33
2023-04-30T03:08:29.449Z,101582.39
2023-04-30T03:09:31.639Z,101580.86
2023-04-30T03:10:33.072Z,101578.36
2023-04-30T03:11:36.857Z,101580.05
2023-04-30T03:12:38.464Z,101577.44
2023-04-30T03:13:40.917Z,101581.34
2023-04-30T03:14:42.318Z,101581.92
2023-04-30T03:15:44.086Z,101581.52
2023-04-30T03:16:47.009Z,101578.73
2023-04-30T03:17:48.522Z,101581.26
2023-04-30T03:18:50.480Z,101582.15
2023-04-30T03:19:52.350Z,101583.42
2023-04-30T03:20:54.173Z,101584.91
2023-04-30T03:21:55.934Z,101583.85
2023-04-30T03:22:57.325Z,101584.78
2023-04-30T03:23:58.780Z,101590.02
2023-04-30T03:25:00.678Z,101591.45
2023-04-30T03:26:02.736Z,101589.61
2023-04-30T03:27:04.165Z,101589.48
2023-04-30T03:28:05.649Z,101591.62
2023-04-30T03:29:07.100Z,101595.35
2023-04-30T03:30:09.142Z,101598.14
2023-04-30T03:31:10.773Z,101599.27
2023-04-30T03:32:12.183Z,101599.14
2023-04-30T03:33:13.762Z,101601.83
2023-04-30T03:34:15.430Z,101607.32
2023-04-30T03:35:18.430Z,101606.76
2023-04-30T03:36:20.416Z,101608.38
2023-04-30T03:37:21.901Z,101608.75
2023-04-30T03:38:23.672Z,101609.39
2023-04-30T03:39:25.162Z,101610.76
2023-04-30T03:40:27.600Z,101611.26
2023-04-30T03:41:29.296Z,101613.08
2023-04-30T03:42:30.822Z,101614.09
2023-04-30T03:43:32.544Z,101612.35
2023-04-30T03:44:33.996Z,101616.35
2023-04-30T03:45:35.799Z,101616.64
2023-04-30T03:46:37.417Z,101615.33
2023-04-30T03:47:39.055Z,101618.95
2023-04-30T03:48:40.590Z,101621.23
2023-04-30T03:49:42.268Z,101619.70
2023-04-30T03:50:44.549Z,101623.96
2023-04-30T03:51:47.216Z,101625.17
2023-04-30T03:52:48.660Z,101624.73
2023-04-30T03:53:50.419Z,101630.28
2023-04-30T03:54:51.823Z,101630.41
2023-04-30T03:55:54.265Z,101630.48
2023-04-30T03:56:56.537Z,101634.79
2023-04-30T03:57:59.694Z,101632.96
2023-04-30T03:59:01.548Z,101632.02
2023-04-30T04:00:07.267Z,101634.58
2023-04-30T04:01:14.364Z,101634.94
2023-04-30T04:02:15.932Z,101637.61
2023-04-30T04:03:17.842Z,101633.31
2023-04-30T04:04:19.356Z,101640.44
2023-04-30T04:05:20.823Z,101636.35
2023-04-30T04:06:22.614Z,101639.09
2023-04-30T04:07:24.276Z,101635.55
2023-04-30T04:08:25.790Z,101636.58
2023-04-30T04:09:27.379Z,101635.12
2023-04-30T04:10:28.916Z,101633.73
2023-04-30T04:11:30.355Z,101633.36
2023-04-30T04:12:31.922Z,101636.15
2023-04-30T04:13:33.432Z,101639.33
2023-04-30T04:14:35.683Z,101635.94
2023-04-30T04:15:37.645Z,101640.77
2023-04-30T04:16:39.347Z,101638.05
2023-04-30T04:17:40.976Z,101638.48
2023-04-30T04:18:42.682Z,101644.36
2023-04-30T04:19:44.204Z,101644.60
2023-04-30T04:20:46.314Z,101644.86
2023-04-30T04:21:47.920Z,101643.16
2023-04-30T04:22:50.318Z,101642.61
2023-04-30T04:23:51.840Z,101645.02
2023-04-30T04:24:54.576Z,101642.09
2023-04-30T04:25:56.926Z,101645.53
2023-04-30T04:26:59.061Z,101647.31
2023-04-30T04:28:01.119Z,101650.81
2023-04-30T04:29:04.075Z,101651.18
2023-04-30T04:30:06.485Z,101654.63
2023-04-30T04:31:08.353Z,101655.70
2023-04-30T04:32:11.097Z,101659.10
2023-04-30T04:33:12.811Z,101658.46
2023-04-30T04:34:14.337Z,101659.42
2023-04-30T04:35:18.218Z,101660.41
2023-04-30T04:36:19.867Z,101660.29
2023-04-30T04:37:21.600Z,101660.70
2023-04-30T04:38:23.423Z,101663.74
2023-04-30T04:39:24.860Z,101664.42
2023-04-30T04:40:27.980Z,101665.20
2023-04-30T04:41:37.584Z,101665.11
2023-04-30T04:42:39.118Z,101663.70
2023-04-30T04:43:40.573Z,101657.87
2023-04-30T04:44:42.329Z,101661.38
2023-04-30T04:45:43.760Z,101665.05
2023-04-30T04:46:45.295Z,101662.66
2023-04-30T04:47:47.572Z,101664.61
2023-04-30T04:48:49.120Z,101666.30
2023-04-30T04:49:50.551Z,101664.80
2023-04-30T04:50:52.388Z,101667.70
2023-04-30T04:51:53.929Z,101664.13
2023-04-30T04:52:55.608Z,101669.23
2023-04-30T04:53:57.065Z,101667.66
2023-04-30T04:54:58.665Z,101669.14
2023-04-30T04:56:01.985Z,101671.94
2023-04-30T04:57:05.140Z,101671.23
2023-04-30T04:58:06.701Z,101673.33
2023-04-30T04:59:08.352Z,101673.05
2023-04-30T05:00:11.258Z,101678.55
2023-04-30T05:01:12.813Z,101673.77
2023-04-30T05:02:14.244Z,101676.20
2023-04-30T05:03:15.966Z,101676.95
2023-04-30T05:04:17.440Z,101673.52
2023-04-30T05:05:19.667Z,101675.73
2023-04-30T05:06:21.402Z,101676.64
2023-04-30T05:07:22.900Z,101674.09
2023-04-30T05:08:24.371Z,101679.40
2023-04-30T05:09:25.757Z,101678.55
2023-04-30T05:10:27.219Z,101684.52
2023-04-30T05:11:28.656Z,101686.08
2023-04-30T05:12:30.363Z,101688.97
2023-04-30T05:13:31.832Z,101685.85
2023-04-30T05:14:33.298Z,101690.95
2023-04-30T05:15:34.926Z,101688.59
2023-04-30T05:16:36.345Z,101694.64
2023-04-30T05:17:37.886Z,101694.91
2023-04-30T05:18:39.317Z,101688.75
2023-04-30T05:19:40.748Z,101692.70
2023-04-30T05:20:42.157Z,101693.57
2023-04-30T05:21:43.601Z,101694.89
2023-04-30T05:22:45.105Z,101696.61
2023-04-30T05:23:46.690Z,101697.06
2023-04-30T05:24:48.315Z,101699.96
2023-04-30T05:25:52.863Z,101704.77
2023-04-30T05:26:54.250Z,101701.89
2023-04-30T05:27:56.210Z,101709.08
2023-04-30T05:28:57.716Z,101706.62
2023-04-30T05:29:59.345Z,101713.82
2023-04-30T05:31:01.346Z,101709.89
2023-04-30T05:32:02.916Z,101711.32
2023-04-30T05:33:04.585Z,101714.70
2023-04-30T05:34:06.021Z,101713.34
2023-04-30T05:35:08.361Z,101711.27
2023-04-30T05:36:10.192Z,101711.63
2023-04-30T05:37:13.780Z,101711.59
2023-04-30T05:38:15.185Z,101711.88
2023-04-30T05:39:16.832Z,101713.79
2023-04-30T05:40:18.343Z,101718.36
2023-04-30T05:41:20.752Z,101721.13
2023-04-30T05:42:22.292Z,101723.45
2023-04-30T05:43:23.737Z,101724.07
2023-04-30T05:44:25.188Z,101720.32
2023-04-30T05:45:27.059Z,101725.77
2023-04-30T05:46:28.699Z,101727.20
2023-04-30T05:47:30.505Z,101725.89
2023-04-30T05:48:31.968Z,101728.85
2023-04-30T05:49:35.625Z,101729.58
2023-04-30T05:50:37.573Z,101732.66
2023-04-30T05:51:39.013Z,101737.40
2023-04-30T05:52:40.399Z,101734.73
2023-04-30T05:53:41.773Z,101735.39
2023-04-30T05:54:43.216Z,101737.34
2023-04-30T05:55:44.798Z,101735.85
2023-04-30T05:56:46.312Z,101737.18
2023-04-30T05:57:47.763Z,101737.34
2023-04-30T05:58:50.463Z,101740.52
2023-04-30T05:59:53.184Z,101737.59
2023-04-30T06:00:54.989Z,101742.20
2023-04-30T06:01:56.421Z,101738.13
2023-04-30T06:02:57.879Z,101742.91
2023-04-30T06:04:00.647Z,101746.07
2023-04-30T06:05:02.613Z,101742.27
2023-04-30T06:06:04.541Z,101744.17
2023-04-30T06:07:06.012Z,101746.27
2023-04-30T06:08:07.438Z,101745.13
2023-04-30T06:09:09.570Z,101743.36
2023-04-30T06:10:11.914Z,101748.36
2023-04-30T06:11:14.115Z,101748.63
2023-04-30T06:12:15.555Z,101745.77
2023-04-30T06:13:17.054Z,101749.40
2023-04-30T06:14:19.560Z,101751.67
2023-04-30T06:15:21.603Z,101750.53
2023-04-30T06:16:23.572Z,101756.92
2023-04-30T06:17:25.300Z,101758.78
2023-04-30T06:18:26.814Z,101757.74
2023-04-30T06:19:28.299Z,101757.09
2023-04-30T06:20:29.958Z,101760.09
2023-04-30T06:21:31.458Z,101765.25
2023-04-30T06:22:33.679Z,101761.69
2023-04-30T06:23:35.131Z,101760.42
2023-04-30T06:24:36.534Z,101763.96
2023-04-30T06:25:38.696Z,101765.77
2023-04-30T06:26:40.129Z,101765.52
2023-04-30T06:27:41.511Z,101767.92
2023-04-30T06:28:42.919Z,101768.13
2023-04-30T06:29:44.315Z,101767.05
2023-04-30T06:30:45.708Z,101766.91
2023-04-30T06:31:47.289Z,101766.73
2023-04-30T06:32:48.747Z,101770.30
2023-04-30T06:33:50.218Z,101772.17
2023-04-30T06:34:51.712Z,101771.32
2023-04-30T06:35:54.841Z,101772.23
2023-04-30T06:36:56.369Z,101770.98
2023-04-30T06:37:57.787Z,101773.50
2023-04-30T06:38:59.267Z,101773.88
2023-04-30T06:40:00.905Z,101774.01
2023-04-30T06:41:02.366Z,101777.42
2023-04-30T06:42:04.088Z,101771.86
2023-04-30T06:43:05.454Z,101775.39
2023-04-30T06:44:08.308Z,101776.49
2023-04-30T06:45:11.724Z,101772.73
2023-04-30T06:46:14.422Z,101774.86
2023-04-30T06:47:15.874Z,101774.61
2023-04-30T06:48:17.232Z,101771.84
2023-04-30T06:49:18.655Z,101775.14
2023-04-30T06:50:21.240Z,101775.90
2023-04-30T06:51:22.706Z,101772.47
2023-04-30T06:52:24.132Z,101781.75
2023-04-30T06:53:25.787Z,101774.94
2023-04-30T06:54:27.176Z,101778.62
2023-04-30T06:55:28.724Z,101780.65
2023-04-30T06:56:30.113Z,101780.18
2023-04-30T06:57:31.802Z,101784.20
2023-04-30T06:58:33.207Z,101786.47
2023-04-30T06:59:34.613Z,101783.41
2023-04-30T07:00:36.187Z,101782.02
2023-04-30T07:01:37.853Z,101785.55
2023-04-30T07:02:39.354Z,101787.55
2023-04-30T07:03:41.093Z,101782.08
2023-04-30T07:04:42.564Z,101784.70
2023-04-30T07:05:44.576Z,101788.16
2023-04-30T07:06:46.095Z,101786.75
2023-04-30T07:07:48.520Z,101790.29
2023-04-30T07:08:50.024Z,101782.88
2023-04-30T07:09:52.856Z,101787.70
2023-04-30T07:10:55.205Z,101789.05
2023-04-30T07:11:58.030Z,101794.03
2023-04-30T07:12:59.524Z,101797.31
2023-04-30T07:14:01.057Z,101792.52
2023-04-30T07:15:02.801Z,101792.11
2023-04-30T07:16:05.409Z,101794.66
2023-04-30T07:17:06.956Z,101791.98
2023-04-30T07:18:09.306Z,101797.28
2023-04-30T07:19:10.748Z,101803.79
2023-04-30T07:20:14.009Z,101800.99
2023-04-30T07:21:15.698Z,101799.39
2023-04-30T07:22:17.227Z,101803.80
2023-04-30T07:23:18.620Z,101806.16
2023-04-30T07:24:20.041Z,101802.45
2023-04-30T07:25:21.430Z,101806.23
2023-04-30T07:26:25.302Z,101806.98
2023-04-30T07:27:27.615Z,101804.31
2023-04-30T07:28:28.969Z,101800.31
2023-04-30T07:29:30.954Z,101808.33
2023-04-30T07:30:33.069Z,101808.46
2023-04-30T07:31:34.685Z,101806.53
2023-04-30T07:32:36.954Z,101808.64
2023-04-30T07:33:38.362Z,101806.02
2023-04-30T07:34:39.851Z,101805.04
2023-04-30T07:35:41.425Z,101805.86
2023-04-30T07:36:42.947Z,101807.92
2023-04-30T07:37:44.358Z,101813.95
2023-04-30T07:38:45.764Z,101809.10
2023-04-30T07:39:47.297Z,101816.09
2023-04-30T07:40:48.673Z,101813.48
2023-04-30T07:41:50.367Z,101819.66
2023-04-30T07:42:51.829Z,101820.46
2023-04-30T07:43:53.788Z,101825.50
2023-04-30T07:44:55.337Z,101820.89
2023-04-30T07:45:57.029Z,101822.16
2023-04-30T07:46:58.516Z,101817.89
2023-04-30T07:48:00.857Z,101820.66
2023-04-30T07:49:03.313Z,101817.48
2023-04-30T07:50:05.498Z,101817.00
2023-04-30T07:51:07.219Z,101819.81
2023-04-30T07:52:10.425Z,101818.08
2023-04-30T07:53:12.176Z,101822.36
2023-04-30T07:54:13.917Z,101818.58
2023-04-30T07:55:15.683Z,101820.11
2023-04-30T07:56:17.051Z,101819.52
2023-04-30T07:57:18.610Z,101825.04
2023-04-30T07:58:20.095Z,101820.23
2023-04-30T07:59:23.786Z,101821.13
2023-04-30T08:00:25.854Z,101825.32
2023-04-30T08:01:27.364Z,101822.56
2023-04-30T08:02:28.866Z,101822.40
2023-04-30T08:03:30.567Z,101828.31
2023-04-30T08:04:32.396Z,101828.29
2023-04-30T08:05:34.041Z,101826.87
2023-04-30T08:06:35.489Z,101826.08
2023-04-30T08:07:37.066Z,101834.02
2023-04-30T08:08:38.961Z,101833.66
2023-04-30T08:09:40.520Z,101831.89
2023-04-30T08:10:41.948Z,101829.63
2023-04-30T08:11:43.390Z,101834.64
2023-04-30T08:12:44.895Z,101833.58
2023-04-30T08:13:46.615Z,101832.38
2023-04-30T08:14:48.133Z,101830.67
2023-04-30T08:15:49.799Z,101833.94
2023-04-30T08:16:51.471Z,101837.52
2023-04-30T08:17:53.217Z,101843.39
2023-04-30T08:18:54.693Z,101842.30
2023-04-30T08:19:56.503Z,101844.96
2023-04-30T08:21:00.131Z,101845.43
2023-04-30T08:22:01.626Z,101845.44
2023-04-30T08:23:04.043Z,101843.92
2023-04-30T08:24:05.680Z,101838.65
2023-04-30T08:25:09.915Z,101842.11
2023-04-30T08:26:11.308Z,101843.63
2023-04-30T08:27:12.660Z,101841.45
2023-04-30T08:28:14.171Z,101843.98
2023-04-30T08:29:15.673Z,101844.85
2023-04-30T08:30:17.283Z,101851.35
2023-04-30T08:31:18.881Z,101855.20
2023-04-30T08:32:20.417Z,101860.20
2023-04-30T08:33:22.042Z,101862.86
2023-04-30T08:34:23.699Z,101861.15
2023-04-30T08:35:25.290Z,101857.54
2023-04-30T08:36:27.218Z,101859.92
2023-04-30T08:37:28.633Z,101862.58
2023-04-30T08:38:30.219Z,101864.98
2023-04-30T08:39:31.671Z,101867.60
2023-04-30T08:40:50.278Z,101868.84
2023-04-30T08:41:56.244Z,101868.19
2023-04-30T08:43:08.728Z,101876.55
2023-04-30T08:44:10.375Z,101877.38
2023-04-30T08:45:15.585Z,101865.73
2023-04-30T08:46:17.660Z,101867.44
2023-04-30T08:47:20.168Z,101869.49
2023-04-30T08:48:23.129Z,101869.56
2023-04-30T08:49:25.049Z,101870.64
2023-04-30T08:50:27.828Z,101874.34
2023-04-30T08:51:32.471Z,101873.46
2023-04-30T08:52:35.244Z,101875.27
2023-04-30T08:53:40.163Z,101876.10
2023-04-30T08:54:41.881Z,101875.42
2023-04-30T08:55:43.971Z,101881.70
2023-04-30T08:56:45.733Z,101883.10
2023-04-30T08:57:47.170Z,101880.70
2023-04-30T08:58:48.548Z,101881.66
2023-04-30T08:59:50.199Z,101879.20
2023-04-30T09:00:51.725Z,101878.91
2023-04-30T09:01:54.088Z,101878.64
2023-04-30T09:02:55.735Z,101879.30
2023-04-30T09:03:57.735Z,101876.95
2023-04-30T09:04:59.532Z,101878.89
2023-04-30T09:06:01.277Z,101877.65
2023-04-30T09:07:05.159Z,101878.55
2023-04-30T09:08:10.466Z,101873.64
2023-04-30T09:09:13.560Z,101878.34
2023-04-30T09:10:18.927Z,101879.05
2023-04-30T09:11:25.217Z,101882.02
2023-04-30T09:12:26.799Z,101883.95
2023-04-30T09:13:40.254Z,101888.33
2023-04-30T09:14:58.620Z,101893.20
2023-04-30T09:16:00.106Z,101890.57
2023-04-30T09:17:01.840Z,101890.35
2023-04-30T09:18:16.777Z,101902.86
2023-04-30T09:19:26.261Z,101897.65
2023-04-30T09:20:27.812Z,101899.50
2023-04-30T09:21:33.110Z,101898.87
2023-04-30T09:22:36.012Z,101903.88
2023-04-30T09:23:54.250Z,101905.57
2023-04-30T09:24:55.691Z,101907.70
2023-04-30T09:25:57.258Z,101908.13
2023-04-30T09:27:15.868Z,101910.10
2023-04-30T09:28:18.655Z,101899.98
2023-04-30T09:29:20.232Z,101907.10
2023-04-30T09:30:32.141Z,101901.08
2023-04-30T09:31:35.685Z,101901.55
2023-04-30T09:32:54.516Z,101903.48
2023-04-30T09:33:56.000Z,101908.17
2023-04-30T09:34:57.618Z,101912.08
2023-04-30T09:36:08.511Z,101905.98
2023-04-30T09:37:10.861Z,101910.15
2023-04-30T09:38:26.746Z,101909.77
2023-04-30T09:39:28.296Z,101913.77
2023-04-30T09:40:37.334Z,101908.35
2023-04-30T09:41:39.111Z,101911.95
2023-04-30T09:42:57.044Z,101907.79
2023-04-30T09:43:58.795Z,101903.29
2023-04-30T09:45:00.742Z,101904.16
2023-04-30T09:46:03.006Z,101907.62
2023-04-30T09:47:04.959Z,101911.14
2023-04-30T09:48:16.891Z,101911.62
2023-04-30T09:49:20.224Z,101908.05
2023-04-30T09:50:25.860Z,101908.95
2023-04-30T09:51:28.148Z,101899.72
2023-04-30T09:52:29.614Z,101908.34
2023-04-30T09:53:35.003Z,101911.06
2023-04-30T09:54:37.070Z,101919.80
2023-04-30T09:55:42.257Z,101920.68
2023-04-30T09:56:44.122Z,101919.39
2023-04-30T09:57:47.373Z,101916.46
2023-04-30T09:58:54.154Z,101916.90
2023-04-30T09:59:57.964Z,101912.28
2023-04-30T10:01:02.795Z,101913.67
2023-04-30T10:02:07.980Z,101917.40
2023-04-30T10:03:11.650Z,101914.36
2023-04-30T10:04:14.741Z,101916.81
2023-04-30T10:05:17.009Z,101911.59
2023-04-30T10:06:20.791Z,101904.27
2023-04-30T10:07:24.196Z,101915.67
2023-04-30T10:08:56.201Z,101905.57
2023-04-30T10:10:04.504Z,101907.81
2023-04-30T10:11:07.674Z,101909.05
2023-04-30T10:12:19.932Z,101907.63
2023-04-30T10:13:22.411Z,101909.77
2023-04-30T10:14:28.159Z,101911.66
2023-04-30T10:15:39.261Z,101915.17
2023-04-30T10:16:47.142Z,101919.85
2023-04-30T10:18:04.180Z,101918.05
2023-04-30T10:19:13.353Z,101919.54
2023-04-30T10:20:16.852Z,101918.74
2023-04-30T10:21:21.978Z,101918.42
2023-04-30T10:22:23.922Z,101919.95
2023-04-30T10:23:25.611Z,101919.80
2023-04-30T10:24:27.456Z,101914.38
2023-04-30T10:25:28.859Z,101917.66
2023-04-30T10:26:31.097Z,101914.42
2023-04-30T10:27:34.064Z,101920.02
2023-04-30T10:28:36.501Z,101912.83
2023-04-30T10:29:37.989Z,101912.61
2023-04-30T10:30:42.848Z,101902.63
2023-04-30T10:31:49.318Z,101905.11
2023-04-30T10:33:00.918Z,101906.80
2023-04-30T10:34:35.257Z,101907.17
2023-04-30T10:35:49.173Z,101911.20
2023-04-30T10:37:06.589Z,101917.45
2023-04-30T10:38:26.456Z,101919.90
2023-04-30T10:39:28.560Z,101923.94
2023-04-30T10:40:35.968Z,101916.60
2023-04-30T10:41:37.832Z,101916.91
2023-04-30T10:42:45.233Z,101907.67
2023-04-30T10:43:47.763Z,101920.69
2023-04-30T10:44:49.564Z,101914.77
2023-04-30T10:45:51.266Z,101913.90
2023-04-30T10:47:03.226Z,101909.17
2023-04-30T10:48:06.516Z,101919.02
2023-04-30T10:49:08.085Z,101915.30
2023-04-30T10:50:10.575Z,101919.66
2023-04-30T10:51:12.008Z,101915.56
2023-04-30T10:52:13.542Z,101907.80
2023-04-30T10:53:19.204Z,101905.64
2023-04-30T10:54:28.646Z,101912.68
2023-04-30T10:55:30.914Z,101920.30
2023-04-30T10:56:33.220Z,101915.70
2023-04-30T10:57:42.978Z,101910.38
2023-04-30T10:58:44.831Z,101915.52
2023-04-30T11:00:08.971Z,101925.73
2023-04-30T11:01:17.031Z,101925.55
2023-04-30T11:02:18.994Z,101919.95
2023-04-30T11:03:21.594Z,101917.50
2023-04-30T11:04:23.736Z,101920.86
2023-04-30T11:05:37.439Z,101922.67
2023-04-30T11:06:52.110Z,101912.84
2023-04-30T11:07:57.825Z,101916.24
2023-04-30T11:09:03.154Z,101924.45
2023-04-30T11:10:07.978Z,101923.70
2023-04-30T11:11:10.847Z,101927.23
2023-04-30T11:12:14.853Z,101919.08
2023-04-30T11:13:16.251Z,101920.45
2023-04-30T11:14:20.902Z,101914.27
2023-04-30T11:15:29.456Z,101916.08
2023-04-30T11:16:34.186Z,101906.93
2023-04-30T11:17:37.532Z,101906.09
2023-04-30T11:18:46.109Z,101905.83
2023-04-30T11:19:49.374Z,101913.13
2023-04-30T11:21:04.393Z,101918.55
2023-04-30T11:22:06.558Z,101915.75
2023-04-30T11:23:08.610Z,101919.95
2023-04-30T11:24:12.171Z,101919.98
2023-04-30T11:25:19.132Z,101922.01
2023-04-30T11:26:20.547Z,101924.09
2023-04-30T11:27:30.045Z,101926.34
2023-04-30T11:28:35.046Z,101923.33
2023-04-30T11:29:36.699Z,101924.70
2023-04-30T11:30:38.970Z,101929.16
2023-04-30T11:31:42.124Z,101921.18
2023-04-30T11:32:47.030Z,101926.77
2023-04-30T11:33:49.881Z,101930.92
2023-04-30T11:34:51.404Z,101933.02
2023-04-30T11:35:55.173Z,101932.02
2023-04-30T11:36:59.329Z,101932.75
2023-04-30T11:38:01.519Z,101930.41
2023-04-30T11:39:05.590Z,101927.25
2023-04-30T11:40:12.399Z,101928.19
2023-04-30T11:41:14.226Z,101927.16
2023-04-30T11:42:19.170Z,101926.84
2023-04-30T11:43:25.513Z,101929.82
2023-04-30T11:44:27.474Z,101929.68
2023-04-30T11:45:29.775Z,101929.73
2023-04-30T11:46:31.409Z,101919.16
2023-04-30T11:47:46.171Z,101930.85
2023-04-30T11:48:47.970Z,101926.70
2023-04-30T11:49:50.867Z,101923.25
2023-04-30T11:50:52.302Z,101922.05
2023-04-30T11:51:53.741Z,101920.46
2023-04-30T11:52:57.739Z,101923.88
2023-04-30T11:53:59.155Z,101926.89
2023-04-30T11:55:00.613Z,101930.73
2023-04-30T11:56:03.340Z,101920.56
2023-04-30T11:57:05.706Z,101933.19
2023-04-30T11:58:09.917Z,101931.14
2023-04-30T11:59:12.702Z,101933.89
2023-04-30T12:00:17.357Z,101938.44
2023-04-30T12:01:20.240Z,101945.08
2023-04-30T12:02:22.569Z,101943.91
2023-04-30T12:03:24.378Z,101946.70
2023-04-30T12:04:26.711Z,101934.27
2023-04-30T12:05:28.605Z,101936.64
2023-04-30T12:06:30.540Z,101934.46
2023-04-30T12:07:32.116Z,101935.58